createdAt,value
2024-02-08T00:02:51.905Z,5.85
2024-02-08T00:07:55.792Z,6.13
2024-02-08T00:12:59.612Z,6.82
2024-02-08T00:18:03.727Z,5.70
2024-02-08T00:23:11.396Z,5.53
2024-02-08T00:28:15.750Z,5.65
2024-02-08T00:33:19.527Z,6.07
2024-02-08T00:38:23.408Z,5.83
2024-02-08T00:43:27.386Z,6.30
2024-02-08T00:48:31.508Z,5.90
2024-02-08T00:53:35.481Z,5.27
2024-02-08T00:58:39.211Z,4.93
2024-02-08T01:03:43.049Z,5.03
2024-02-08T01:08:46.890Z,5.43
2024-02-08T01:13:54.100Z,6.28
2024-02-08T01:18:58.327Z,4.97
2024-02-08T01:24:02.155Z,6.43
2024-02-08T01:29:09.115Z,5.27
2024-02-08T01:34:14.638Z,7.32
2024-02-08T01:39:24.755Z,5.97
2024-02-08T01:44:28.432Z,6.73
2024-02-08T01:49:34.345Z,6.83
2024-02-08T01:54:46.052Z,5.90
2024-02-08T01:59:54.957Z,5.20
2024-02-08T02:04:59.642Z,6.90
2024-02-08T02:10:04.197Z,6.73
2024-02-08T02:15:08.494Z,6.80
2024-02-08T02:20:20.705Z,8.13
2024-02-08T02:25:28.439Z,7.73
2024-02-08T02:30:34.582Z,7.43
2024-02-08T02:35:38.313Z,6.70
2024-02-08T02:40:43.554Z,9.07
2024-02-08T02:45:47.206Z,8.27
2024-02-08T02:50:53.697Z,8.32
2024-02-08T02:56:01.068Z,6.37
2024-02-08T03:06:17.910Z,9.60
2024-02-08T03:11:22.925Z,8.50
2024-02-08T03:16:28.418Z,8.05
2024-02-08T03:21:37.830Z,8.07
2024-02-08T03:26:42.695Z,8.68
2024-02-08T03:31:48.714Z,7.93
2024-02-08T03:36:52.669Z,7.53
2024-02-08T03:42:06.633Z,9.07
2024-02-08T03:47:10.817Z,11.57
2024-02-08T03:52:15.079Z,12.00
2024-02-08T03:57:20.735Z,10.82
2024-02-08T04:02:24.549Z,8.40
2024-02-08T04:07:47.579Z,7.95
2024-02-08T04:13:10.341Z,9.23
2024-02-08T04:18:32.378Z,11.35
2024-02-08T04:23:54.514Z,12.13
2024-02-08T04:29:17.073Z,10.43
2024-02-08T04:34:39.936Z,16.48
2024-02-08T04:40:02.326Z,14.48
2024-02-08T04:45:25.330Z,8.18
2024-02-08T04:50:47.362Z,7.78
2024-02-08T04:55:51.115Z,9.60
2024-02-08T05:00:55.032Z,9.75
2024-02-08T05:05:59.782Z,8.30
2024-02-08T05:11:05.535Z,6.43
2024-02-08T05:16:16.186Z,7.88
2024-02-08T05:21:20.067Z,7.20
2024-02-08T05:26:27.701Z,8.15
2024-02-08T05:31:31.924Z,7.30
2024-02-08T05:36:41.701Z,8.00
2024-02-08T05:41:46.336Z,7.50
2024-02-08T05:46:51.574Z,9.40
2024-02-08T05:51:57.237Z,8.65
2024-02-08T05:57:05.276Z,7.72
2024-02-08T06:02:17.409Z,7.43
2024-02-08T06:07:22.808Z,9.38
2024-02-08T06:12:59.169Z,11.02
2024-02-08T06:18:06.425Z,9.77
2024-02-08T06:23:25.033Z,8.95
2024-02-08T06:28:30.830Z,11.50
2024-02-08T06:33:56.328Z,10.13
2024-02-08T06:39:22.228Z,10.77
2024-02-08T06:44:38.751Z,10.52
2024-02-08T06:50:14.744Z,8.13
2024-02-08T06:55:38.353Z,9.23
2024-02-08T07:01:00.390Z,8.80
2024-02-08T07:06:22.814Z,9.07
2024-02-08T07:11:44.781Z,9.05
2024-02-08T07:17:07.131Z,9.10
2024-02-08T07:22:29.234Z,7.43
2024-02-08T07:27:51.272Z,8.65
2024-02-08T07:33:13.733Z,9.10
2024-02-08T07:38:36.459Z,8.80
2024-02-08T07:43:45.980Z,8.77
2024-02-08T07:48:50.000Z,8.80
2024-02-08T07:53:55.984Z,8.35
2024-02-08T07:59:08.348Z,8.57
2024-02-08T08:04:14.653Z,7.22
2024-02-08T08:09:21.259Z,6.60
2024-02-08T08:14:40.869Z,7.63
2024-02-08T08:19:48.696Z,7.25
2024-02-08T08:25:14.354Z,8.10
2024-02-08T08:30:33.100Z,7.22
2024-02-08T08:35:56.974Z,6.55
2024-02-08T08:41:17.153Z,6.80
2024-02-08T08:46:23.157Z,7.07
2024-02-08T08:51:33.042Z,7.43
2024-02-08T08:56:36.880Z,7.32
2024-02-08T09:01:42.544Z,7.38
2024-02-08T09:06:49.830Z,7.20
2024-02-08T09:11:59.828Z,6.45
2024-02-08T09:17:24.111Z,6.60
2024-02-08T09:22:36.080Z,5.80
2024-02-08T09:27:40.729Z,6.22
2024-02-08T09:32:47.118Z,6.90
2024-02-08T09:37:50.774Z,6.15
2024-02-08T09:42:58.251Z,6.47
2024-02-08T09:48:10.955Z,5.95
2024-02-08T09:53:30.414Z,6.82
2024-02-08T09:59:04.783Z,6.40
2024-02-08T10:04:19.680Z,6.75
2024-02-08T10:09:39.038Z,5.72
2024-02-08T10:14:44.117Z,5.82
2024-02-08T10:20:30.888Z,6.70
2024-02-08T10:25:53.119Z,7.07
2024-02-08T10:31:14.582Z,6.32
2024-02-08T10:36:23.307Z,5.88
2024-02-08T10:41:37.863Z,5.65
2024-02-08T10:46:44.471Z,5.43
2024-02-08T10:51:49.892Z,5.10
2024-02-08T10:57:17.580Z,5.60
2024-02-08T11:02:50.674Z,5.13
2024-02-08T11:07:55.593Z,5.65
2024-02-08T11:13:04.380Z,5.38
2024-02-08T11:18:29.646Z,5.00
2024-02-08T11:23:48.093Z,5.03
2024-02-08T11:29:03.520Z,4.40
2024-02-08T11:34:26.225Z,4.80
2024-02-08T11:39:30.024Z,4.53
2024-02-08T11:44:45.720Z,4.68
2024-02-08T11:50:03.924Z,5.15
2024-02-08T11:55:12.569Z,4.95
2024-02-08T12:00:20.153Z,4.47
2024-02-08T12:05:27.006Z,4.28
2024-02-08T12:10:31.219Z,5.13
2024-02-08T12:15:38.090Z,5.97
2024-02-08T12:20:45.673Z,5.28
2024-02-08T12:25:57.773Z,4.85
2024-02-08T12:31:03.166Z,5.03
2024-02-08T12:36:07.474Z,4.90
2024-02-08T12:41:13.844Z,4.78
2024-02-08T12:46:18.295Z,4.90
2024-02-08T12:51:25.076Z,5.30
2024-02-08T12:56:33.449Z,5.18
2024-02-08T13:01:46.164Z,4.85
2024-02-08T13:06:53.837Z,4.90
2024-02-08T13:12:19.350Z,5.22
2024-02-08T13:17:27.998Z,6.68
2024-02-08T13:22:34.996Z,6.97
2024-02-08T13:27:40.575Z,6.85
2024-02-08T13:32:46.869Z,6.80
2024-02-08T13:37:53.170Z,6.60
2024-02-08T13:43:00.980Z,11.00
2024-02-08T13:48:07.307Z,8.88
2024-02-08T13:53:17.068Z,8.55
2024-02-08T13:58:27.806Z,7.22
2024-02-08T14:03:37.070Z,7.05
2024-02-08T14:08:48.961Z,5.85
2024-02-08T14:14:00.503Z,5.65
2024-02-08T14:19:04.454Z,4.93
2024-02-08T14:24:13.744Z,4.80
2024-02-08T14:29:17.577Z,5.38
2024-02-08T14:34:28.375Z,5.90
2024-02-08T14:39:37.000Z,4.95
2024-02-08T14:44:46.486Z,6.93
2024-02-08T14:49:59.519Z,5.25
2024-02-08T14:55:23.337Z,5.15
2024-02-08T15:00:31.097Z,6.30
2024-02-08T15:05:50.966Z,5.55
2024-02-08T15:11:13.937Z,5.97
2024-02-08T15:16:24.204Z,6.15
2024-02-08T15:21:37.753Z,5.38
2024-02-08T15:27:06.627Z,5.40
2024-02-08T15:32:19.988Z,5.47
2024-02-08T15:37:34.590Z,5.28
2024-02-08T15:42:41.864Z,4.15
2024-02-08T15:48:04.025Z,4.85
2024-02-08T15:53:20.927Z,3.80
2024-02-08T15:58:28.266Z,4.22
2024-02-08T16:03:41.999Z,3.83
2024-02-08T16:08:48.818Z,3.58
2024-02-08T16:13:59.082Z,3.33
2024-02-08T16:19:21.939Z,4.30
2024-02-08T16:24:25.986Z,3.42
2024-02-08T16:29:45.426Z,3.75
2024-02-08T16:34:52.719Z,3.85
2024-02-08T16:40:16.583Z,3.17
2024-02-08T16:45:20.508Z,3.17
2024-02-08T16:50:36.788Z,3.65
2024-02-08T16:55:48.785Z,3.63
2024-02-08T17:01:04.830Z,3.83
2024-02-08T17:06:20.492Z,3.35
2024-02-08T17:11:26.073Z,3.78
2024-02-08T17:16:32.468Z,3.53
2024-02-08T17:21:52.089Z,3.88
2024-02-08T17:27:04.700Z,3.95
2024-02-08T17:32:14.547Z,3.55
2024-02-08T17:37:32.299Z,3.58
2024-02-08T17:42:36.461Z,3.47
2024-02-08T17:47:46.029Z,3.03
2024-02-08T17:52:52.687Z,3.42
2024-02-08T17:57:58.048Z,3.20
2024-02-08T18:03:02.769Z,3.67
2024-02-08T18:08:08.961Z,3.97
2024-02-08T18:13:12.952Z,3.60
2024-02-08T18:18:17.095Z,5.03
2024-02-08T18:23:21.738Z,4.00
2024-02-08T18:28:27.481Z,3.13
2024-02-08T18:33:34.264Z,4.18
2024-02-08T18:38:38.532Z,4.03
2024-02-08T18:43:42.465Z,4.03
2024-02-08T18:48:47.239Z,3.97
2024-02-08T18:53:51.871Z,4.03
2024-02-08T18:58:55.812Z,4.55
2024-02-08T19:03:59.681Z,3.33
2024-02-08T19:09:05.625Z,3.53
2024-02-08T19:14:10.447Z,3.33
2024-02-08T19:19:15.226Z,3.45
2024-02-08T19:24:19.283Z,3.83
2024-02-08T19:29:26.074Z,4.32
2024-02-08T19:34:33.068Z,2.42
2024-02-08T19:39:38.429Z,3.50
2024-02-08T19:44:44.272Z,4.05
2024-02-08T19:49:48.814Z,2.90
2024-02-08T19:54:58.789Z,3.03
2024-02-08T20:00:02.475Z,3.85
2024-02-08T20:05:09.905Z,2.95
2024-02-08T20:10:16.734Z,2.97
2024-02-08T20:15:29.823Z,3.22
2024-02-08T20:20:36.004Z,3.10
2024-02-08T20:25:41.179Z,3.13
2024-02-08T20:30:58.039Z,3.40
2024-02-08T20:36:10.334Z,3.53
2024-02-08T20:41:14.067Z,3.03
2024-02-08T20:46:18.243Z,3.45
2024-02-08T20:51:23.886Z,2.65
2024-02-08T20:56:30.645Z,3.05
2024-02-08T21:01:37.842Z,3.25
2024-02-08T21:06:44.469Z,3.75
2024-02-08T21:11:48.353Z,2.80
2024-02-08T21:16:55.745Z,2.75
2024-02-08T21:22:00.062Z,2.60
2024-02-08T21:27:08.537Z,3.20
2024-02-08T21:32:12.404Z,2.65
2024-02-08T21:37:16.372Z,3.17
2024-02-08T21:42:21.528Z,2.35
2024-02-08T21:47:28.796Z,3.35
2024-02-08T21:52:32.456Z,1.98
2024-02-08T21:57:36.468Z,2.78
2024-02-08T22:02:41.950Z,2.50
2024-02-08T22:07:49.508Z,2.38
2024-02-08T22:12:53.325Z,3.00
2024-02-08T22:17:58.711Z,2.75
2024-02-08T22:23:02.655Z,2.40
2024-02-08T22:28:10.817Z,2.10
2024-02-08T22:33:16.020Z,1.88
2024-02-08T22:38:21.194Z,2.88
2024-02-08T22:43:25.433Z,2.78
2024-02-08T22:48:29.148Z,2.55
2024-02-08T22:53:32.675Z,2.42
2024-02-08T22:58:36.457Z,2.40
2024-02-08T23:03:40.170Z,2.22
2024-02-08T23:08:45.774Z,2.33
2024-02-08T23:13:49.505Z,2.63
2024-02-08T23:18:53.373Z,2.75
2024-02-08T23:23:57.557Z,2.40
2024-02-08T23:29:01.087Z,1.80
2024-02-08T23:34:05.418Z,1.88
2024-02-08T23:39:09.616Z,2.60
2024-02-08T23:44:13.249Z,1.73
2024-02-08T23:49:17.230Z,2.70
2024-02-08T23:54:20.981Z,1.70
2024-02-08T23:59:24.761Z,1.60
